Time;durP1;ratioP1;P1;durP2;ratioP2;P2;SDS_P1;SDS_P2;PMS_P1;PMS_P2;Temp;Humidity;BMP_temperature;BMP_pressure;BME280_temperature;BME280_humidity;BME280_pressure;Samples;Min_cycle;Max_cycle;Signal;HPM_P1;HPM_P2
2021/12/27 00:00:13;;;;;;;;;;;;;;;20.01;55.32;98607.22;2086639;28;20247;-44
2021/12/27 00:01:14;;;;;;;;;;;;;;;19.99;55.49;98601.13;2077231;28;19920;-44
2021/12/27 00:02:15;;;;;;;;;;;;;;;20.00;55.49;98596.50;2077579;28;19976;-46
2021/12/27 00:03:15;;;;;;;;;;;;;;;19.98;55.39;98583.00;2086761;28;20226;-44
2021/12/27 00:04:16;;;;;;;;;;;;;;;19.98;55.40;98602.16;2086632;28;20269;-44
2021/12/27 00:05:16;;;;;;;;;;;;;;;19.97;55.42;98595.00;2089529;28;19982;-44
2021/12/27 00:06:16;;;;;;;;;;;;;;;19.97;55.47;98594.16;2094900;28;20019;-44
2021/12/27 00:07:17;;;;;;;;;;;;;;;19.96;55.40;98587.81;2093128;28;19959;-44
2021/12/27 00:08:17;;;;;;;;;;;;;;;19.96;55.41;98590.56;2094006;28;20307;-44
2021/12/27 00:09:18;;;;;;;;;;;;;;;19.95;55.45;98586.13;2093964;28;20661;-44
2021/12/27 00:10:18;;;;;;;;;;;;;;;19.95;55.58;98586.13;2093824;28;19920;-45
2021/12/27 00:11:19;;;;;;;;;;;;;;;19.93;55.54;98580.00;2088208;28;19916;-44
2021/12/27 00:12:19;;;;;;;;;;;;;;;19.94;55.59;98581.69;2095333;28;19916;-44
2021/12/27 00:13:20;;;;;;;;;;;;;;;19.94;55.60;98586.31;2085061;28;19916;-44
2021/12/27 00:14:20;;;;;;;;;;;;;;;19.93;55.62;98574.53;2091672;28;19978;-44
2021/12/27 00:15:21;;;;;;;;;;;;;;;19.90;55.50;98574.94;2089571;28;20334;-44
2021/12/27 00:16:21;;;;;;;;;;;;;;;19.92;55.70;98573.69;2088744;28;19952;-44
2021/12/27 00:17:21;;;;;;;;;;;;;;;19.92;55.53;98572.84;2093565;28;19908;-44
2021/12/27 00:18:22;;;;;;;;;;;;;;;19.92;55.55;98572.84;2089115;28;19931;-44
2021/12/27 00:19:22;;;;;;;;;;;;;;;19.92;55.67;98561.91;2094929;28;20367;-44
2021/12/27 00:20:22;;;;;;;;;;;;;;;19.92;55.55;98561.91;2093215;28;20005;-44
2021/12/27 00:21:23;;;;;;;;;;;;;;;19.92;55.64;98556.44;2094697;28;19960;-44
2021/12/27 00:22:23;;;;;;;;;;;;;;;19.96;55.59;98556.91;2100535;28;20047;-44
2021/12/27 00:23:23;;;;;;;;;;;;;;;19.95;55.49;98550.59;2092821;28;19924;-44
2021/12/27 00:24:24;;;;;;;;;;;;;;;20.02;55.30;98556.97;2100104;28;20041;-44
2021/12/27 00:25:26;;;;;;;;;;;;;;;20.07;55.04;98548.19;2084923;28;20447;-45
2021/12/27 00:26:26;;;;;;;;;;;;;;;20.12;55.00;98546.56;2091070;28;19936;-45
2021/12/27 00:27:27;;;;;;;;;;;;;;;20.19;54.82;98551.28;2092900;28;19927;-44
2021/12/27 00:28:27;;;;;;;;;;;;;;;20.25;54.92;98550.47;2094251;28;19915;-44
2021/12/27 00:29:28;;;;;;;;;;;;;;;20.30;54.70;98548.84;2089157;28;19916;-45
2021/12/27 00:30:28;;;;;;;;;;;;;;;20.33;54.66;98543.00;2093922;28;20106;-45
2021/12/27 00:31:28;;;;;;;;;;;;;;;20.37;54.57;98551.66;2094209;28;19969;-45
2021/12/27 00:32:28;;;;;;;;;;;;;;;20.41;54.37;98544.75;2091135;28;20341;-45
2021/12/27 00:33:29;;;;;;;;;;;;;;;20.42;54.33;98543.69;2089237;28;19928;-44
2021/12/27 00:34:29;;;;;;;;;;;;;;;20.44;54.35;98543.53;2091095;28;19912;-44
2021/12/27 00:35:32;;;;;;;;;;;;;;;20.45;54.18;98534.25;2087763;28;19920;-45
2021/12/27 00:36:32;;;;;;;;;;;;;;;20.46;54.22;98531.31;2092369;28;19952;-44
2021/12/27 00:37:33;;;;;;;;;;;;;;;20.46;54.21;98523.13;2091804;28;19916;-47
2021/12/27 00:38:33;;;;;;;;;;;;;;;20.46;54.24;98527.75;2093389;28;19978;-46
2021/12/27 00:39:34;;;;;;;;;;;;;;;20.51;54.11;98520.63;2091837;28;19920;-45
2021/12/27 00:40:35;;;;;;;;;;;;;;;20.49;54.06;98513.66;2093275;28;20006;-45
2021/12/27 00:41:35;;;;;;;;;;;;;;;20.51;54.10;98520.63;2086436;28;20291;-45
2021/12/27 00:42:36;;;;;;;;;;;;;;;20.53;53.87;98515.81;2092329;28;20292;-45
2021/12/27 00:43:36;;;;;;;;;;;;;;;20.51;53.86;98512.44;2086223;28;20453;-45
2021/12/27 00:44:37;;;;;;;;;;;;;;;20.53;54.01;98509.50;2082435;28;19916;-45
2021/12/27 00:45:37;;;;;;;;;;;;;;;20.53;53.76;98510.34;2094981;28;19923;-44
2021/12/27 00:46:37;;;;;;;;;;;;;;;20.52;53.54;98503.16;2095454;28;19916;-45
2021/12/27 00:47:38;;;;;;;;;;;;;;;20.57;53.80;98501.75;2090939;28;19922;-45
2021/12/27 00:48:38;;;;;;;;;;;;;;;20.55;53.61;98497.34;2092841;28;19916;-45
2021/12/27 00:49:39;;;;;;;;;;;;;;;20.57;53.46;98496.28;2093178;28;20098;-45
2021/12/27 00:50:39;;;;;;;;;;;;;;;20.57;53.49;98499.84;2097307;28;20900;-45
2021/12/27 00:51:40;;;;;;;;;;;;;;;20.58;53.43;98493.34;2094189;28;19915;-45
2021/12/27 00:52:40;;;;;;;;;;;;;;;20.59;53.69;98497.78;2094790;28;19916;-46
2021/12/27 00:53:41;;;;;;;;;;;;;;;20.60;53.33;98487.66;2092983;28;20443;-46
2021/12/27 00:54:41;;;;;;;;;;;;;;;20.59;53.38;98478.63;2093759;28;20707;-46
2021/12/27 00:55:41;;;;;;;;;;;;;;;20.63;53.49;98487.25;2093484;28;19920;-45
2021/12/27 00:56:42;;;;;;;;;;;;;;;20.62;53.48;98477.38;2091873;28;19919;-45
2021/12/27 00:57:42;;;;;;;;;;;;;;;20.63;53.12;98481.78;2096671;28;20756;-46
2021/12/27 00:58:42;;;;;;;;;;;;;;;20.62;53.38;98477.38;2092528;28;19927;-45
2021/12/27 00:59:43;;;;;;;;;;;;;;;20.64;53.34;98476.13;2092995;28;19919;-45
2021/12/27 01:00:43;;;;;;;;;;;;;;;20.65;53.16;98479.69;2088371;28;19924;-46
2021/12/27 01:01:43;;;;;;;;;;;;;;;20.65;53.21;98477.84;2085681;28;20179;-46
2021/12/27 01:02:45;;;;;;;;;;;;;;;20.66;53.13;98475.94;2093493;28;19976;-45
2021/12/27 01:03:45;;;;;;;;;;;;;;;20.66;53.44;98475.94;2088875;28;19909;-44
2021/12/27 01:04:45;;;;;;;;;;;;;;;20.66;53.11;98470.47;2086638;28;19916;-45
2021/12/27 01:05:46;;;;;;;;;;;;;;;20.66;53.18;98471.28;2091272;28;20262;-45
2021/12/27 01:06:46;;;;;;;;;;;;;;;20.66;53.09;98470.47;2087452;28;20318;-44
2021/12/27 01:07:47;;;;;;;;;;;;;;;20.67;53.28;98463.94;2090984;28;19920;-45
2021/12/27 01:08:47;;;;;;;;;;;;;;;20.67;53.19;98466.66;2087991;28;19923;-44
2021/12/27 01:11:11;;;;;;;;;;;;;;;20.68;53.16;98457.41;2087690;28;20012;-44
2021/12/27 01:13:40;;;;;;;;;;;;;;;20.67;53.25;98458.44;2085823;28;19927;-44
2021/12/27 01:14:44;;;;;;;;;;;;;;;20.67;53.02;98461.19;2090458;28;19915;-44
2021/12/27 01:15:49;;;;;;;;;;;;;;;20.67;53.11;98462.03;2086910;28;19932;-45
2021/12/27 01:16:49;;;;;;;;;;;;;;;20.68;53.14;98462.91;2087757;28;19923;-45
2021/12/27 01:17:50;;;;;;;;;;;;;;;20.68;53.31;98463.75;2087383;28;19954;-45
2021/12/27 01:18:51;;;;;;;;;;;;;;;20.70;53.20;98460.78;2090324;28;19966;-45
2021/12/27 01:19:51;;;;;;;;;;;;;;;20.69;52.94;98465.41;2089741;28;20284;-45
2021/12/27 01:20:52;;;;;;;;;;;;;;;20.69;53.17;98448.16;2088444;28;19971;-45
2021/12/27 01:21:52;;;;;;;;;;;;;;;20.70;52.93;98455.31;2088695;28;20011;-45
2021/12/27 01:22:53;;;;;;;;;;;;;;;20.70;53.12;98449.81;2089363;28;20353;-45
2021/12/27 01:23:54;;;;;;;;;;;;;;;20.72;52.84;98450.47;2091657;28;19916;-45
2021/12/27 01:24:54;;;;;;;;;;;;;;;20.70;52.97;98444.34;2090698;28;20488;-45
2021/12/27 01:25:55;;;;;;;;;;;;;;;20.72;52.91;98436.78;2090686;28;19912;-45
2021/12/27 01:26:55;;;;;;;;;;;;;;;20.71;53.07;98441.44;2089467;28;19992;-45
2021/12/27 01:27:55;;;;;;;;;;;;;;;20.72;52.84;98436.78;2089753;28;19916;-45
2021/12/27 01:28:57;;;;;;;;;;;;;;;20.73;53.02;98443.97;2092950;28;19935;-45
2021/12/27 01:29:57;;;;;;;;;;;;;;;20.72;52.95;98436.78;2092248;28;19915;-46
2021/12/27 01:30:57;;;;;;;;;;;;;;;20.73;52.80;98438.50;2080973;28;19953;-45
2021/12/27 01:31:58;;;;;;;;;;;;;;;20.73;52.95;98438.50;2084846;28;19958;-43
2021/12/27 01:33:01;;;;;;;;;;;;;;;20.74;52.70;98435.53;2094624;28;20282;-45
2021/12/27 01:34:01;;;;;;;;;;;;;;;20.73;52.77;98433.03;2093557;28;19915;-47
2021/12/27 01:35:01;;;;;;;;;;;;;;;20.74;52.95;98434.69;2089722;28;19923;-49
2021/12/27 01:36:03;;;;;;;;;;;;;;;20.69;52.91;98431.72;2090333;28;19916;-49
2021/12/27 01:37:05;;;;;;;;;;;;;;;20.65;52.90;98435.91;2089719;28;19923;-44
2021/12/27 01:38:05;;;;;;;;;;;;;;;20.59;52.94;98431.22;2088877;28;19908;-45
2021/12/27 01:39:06;;;;;;;;;;;;;;;20.49;52.93;98426.91;2097296;28;19919;-44
2021/12/27 01:40:07;;;;;;;;;;;;;;;20.42;53.27;98428.75;2091461;28;20023;-44
2021/12/27 01:41:09;;;;;;;;;;;;;;;20.33;53.53;98428.06;2092860;28;19920;-45
2021/12/27 01:42:09;;;;;;;;;;;;;;;20.26;53.50;98420.84;2090873;28;19934;-45
2021/12/27 01:43:11;;;;;;;;;;;;;;;20.22;53.89;98425.03;2091544;28;19919;-45
2021/12/27 01:44:13;;;;;;;;;;;;;;;20.19;53.98;98425.44;2093268;28;20269;-44
2021/12/27 01:45:13;;;;;;;;;;;;;;;20.13;54.15;98422.41;2089696;28;19916;-45
2021/12/27 01:46:18;;;;;;;;;;;;;;;20.11;54.11;98424.53;2095415;28;20178;-44
2021/12/27 01:47:19;;;;;;;;;;;;;;;20.08;54.25;98419.41;2093217;28;20294;-45
2021/12/27 01:48:23;;;;;;;;;;;;;;;20.06;54.32;98418.78;2093029;28;19915;-45
2021/12/27 01:49:23;;;;;;;;;;;;;;;20.05;54.44;98419.81;2095381;28;20186;-45
2021/12/27 01:50:24;;;;;;;;;;;;;;;20.02;54.27;98420.22;2092018;28;19952;-46
2021/12/27 01:51:25;;;;;;;;;;;;;;;20.04;54.44;98429.09;2078482;28;19959;-45
2021/12/27 01:52:26;;;;;;;;;;;;;;;20.02;54.51;98420.22;2080783;28;20227;-45
2021/12/27 01:53:29;;;;;;;;;;;;;;;20.00;54.54;98427.78;2093661;28;19923;-45
2021/12/27 01:54:29;;;;;;;;;;;;;;;20.00;54.55;98427.78;2091402;28;19929;-46
2021/12/27 01:55:29;;;;;;;;;;;;;;;19.98;54.71;98421.66;2090345;28;20005;-45
2021/12/27 01:56:30;;;;;;;;;;;;;;;19.99;54.74;98419.75;2089156;28;19912;-45
2021/12/27 01:57:30;;;;;;;;;;;;;;;19.96;54.73;98415.53;2085620;28;19913;-45
2021/12/27 01:58:31;;;;;;;;;;;;;;;19.97;54.76;98417.22;2093180;28;19966;-45
2021/12/27 01:59:31;;;;;;;;;;;;;;;19.96;54.84;98415.53;2088757;28;19912;-45
2021/12/27 02:00:32;;;;;;;;;;;;;;;19.96;54.69;98418.25;2094181;28;19941;-44
2021/12/27 02:01:33;;;;;;;;;;;;;;;19.95;54.80;98419.31;2091120;28;20408;-45
2021/12/27 02:02:33;;;;;;;;;;;;;;;19.95;54.79;98429.41;2086297;28;19916;-45
2021/12/27 02:03:33;;;;;;;;;;;;;;;19.93;54.82;98415.91;2089443;28;20188;-45
2021/12/27 02:04:34;;;;;;;;;;;;;;;19.92;54.72;98420.56;2091932;28;20011;-44
2021/12/27 02:05:34;;;;;;;;;;;;;;;19.92;54.80;98425.19;2092502;28;19916;-44
2021/12/27 02:06:35;;;;;;;;;;;;;;;19.91;55.00;98423.47;2094471;28;19916;-44
2021/12/27 02:07:35;;;;;;;;;;;;;;;19.91;54.95;98428.94;2083238;28;20052;-44
2021/12/27 02:08:37;;;;;;;;;;;;;;;19.90;54.98;98439.03;2082059;28;19963;-45
2021/12/27 02:09:48;;;;;;;;;;;;;;;19.90;54.96;98432.72;2080267;28;19908;-45
2021/12/27 02:10:49;;;;;;;;;;;;;;;19.90;55.01;98421.78;2090710;28;19922;-44
2021/12/27 02:11:50;;;;;;;;;;;;;;;19.90;55.03;98432.72;2095975;28;20348;-45
2021/12/27 02:12:51;;;;;;;;;;;;;;;19.88;55.18;98423.88;2092188;28;19909;-45
2021/12/27 02:13:52;;;;;;;;;;;;;;;19.88;55.10;98426.59;2097110;28;20219;-44
2021/12/27 02:14:52;;;;;;;;;;;;;;;19.87;55.09;98414.00;2094043;28;19919;-44
2021/12/27 02:15:53;;;;;;;;;;;;;;;19.87;55.24;98422.19;2089220;28;19928;-44
2021/12/27 02:16:53;;;;;;;;;;;;;;;19.86;55.21;98425.94;2094370;28;19920;-45
2021/12/27 02:17:53;;;;;;;;;;;;;;;19.86;55.13;98420.47;2091077;28;19920;-44
2021/12/27 02:18:54;;;;;;;;;;;;;;;19.85;55.14;98430.56;2092562;28;19916;-46
2021/12/27 02:19:54;;;;;;;;;;;;;;;19.85;55.27;98435.22;2093157;28;19986;-45
2021/12/27 02:20:54;;;;;;;;;;;;;;;19.85;55.17;98435.22;2092744;28;19962;-45
2021/12/27 02:21:57;;;;;;;;;;;;;;;19.84;55.31;98438.97;2092555;28;20338;-45
2021/12/27 02:23:01;;;;;;;;;;;;;;;19.83;55.18;98438.13;2091486;28;20475;-47
2021/12/27 02:24:03;;;;;;;;;;;;;;;19.83;55.28;98445.47;2090420;28;20202;-47
2021/12/27 02:25:05;;;;;;;;;;;;;;;19.83;55.36;98445.47;2094508;28;19916;-46
2021/12/27 02:26:06;;;;;;;;;;;;;;;19.82;55.17;98439.19;2092274;28;19912;-44
2021/12/27 02:27:12;;;;;;;;;;;;;;;19.83;55.27;98437.28;2096883;28;19962;-45
2021/12/27 02:28:13;;;;;;;;;;;;;;;19.81;55.25;98444.81;2088375;28;20011;-45
2021/12/27 02:29:13;;;;;;;;;;;;;;;19.81;55.22;98440.19;2091471;28;19939;-45
2021/12/27 02:30:17;;;;;;;;;;;;;;;19.81;55.30;98442.09;2088931;28;19950;-45
2021/12/27 02:31:18;;;;;;;;;;;;;;;19.81;55.37;98439.34;2088627;28;19916;-45
2021/12/27 02:32:18;;;;;;;;;;;;;;;19.80;55.23;98435.78;2093276;28;20377;-45
2021/12/27 02:33:19;;;;;;;;;;;;;;;19.80;55.24;98429.47;2089898;28;19908;-44
2021/12/27 02:34:19;;;;;;;;;;;;;;;19.78;55.32;98418.72;2092755;28;19916;-44
2021/12/27 02:35:23;;;;;;;;;;;;;;;19.78;55.46;98407.78;2081775;28;19923;-44
2021/12/27 02:36:24;;;;;;;;;;;;;;;19.79;55.41;98414.09;2083760;28;21117;-45
2021/12/27 02:37:24;;;;;;;;;;;;;;;19.78;55.44;98409.69;2093844;28;19934;-45
2021/12/27 02:38:26;;;;;;;;;;;;;;;19.77;55.45;98407.97;2087712;28;19923;-45
2021/12/27 02:39:29;;;;;;;;;;;;;;;19.77;55.46;98407.97;2086999;28;20263;-46
2021/12/27 02:40:31;;;;;;;;;;;;;;;19.77;55.53;98407.97;2092652;28;20334;-47
2021/12/27 02:41:31;;;;;;;;;;;;;;;19.76;55.44;98409.03;2088800;28;20525;-45
2021/12/27 02:42:31;;;;;;;;;;;;;;;19.75;55.51;98413.66;2087086;28;19909;-45
2021/12/27 02:43:32;;;;;;;;;;;;;;;19.76;55.44;98425.44;2087813;28;19916;-45
2021/12/27 02:44:34;;;;;;;;;;;;;;;19.75;55.46;98423.75;2090700;28;19939;-45
2021/12/27 02:45:36;;;;;;;;;;;;;;;19.76;55.47;98419.97;2085516;28;20263;-44
2021/12/27 02:46:37;;;;;;;;;;;;;;;19.75;55.50;98423.75;2083881;28;20317;-45
2021/12/27 02:47:37;;;;;;;;;;;;;;;19.74;55.44;98422.88;2092726;28;19915;-45
2021/12/27 02:48:39;;;;;;;;;;;;;;;19.74;55.56;98430.25;2087210;28;20141;-44
2021/12/27 02:49:39;;;;;;;;;;;;;;;19.75;55.56;98423.75;2090217;28;19916;-45
2021/12/27 02:50:40;;;;;;;;;;;;;;;19.73;55.49;98421.19;2095079;28;20376;-46
2021/12/27 02:51:40;;;;;;;;;;;;;;;19.73;55.53;98420.34;2093017;28;20285;-45
2021/12/27 02:52:41;;;;;;;;;;;;;;;19.72;55.72;98414.06;2093918;28;19916;-48
2021/12/27 02:53:44;;;;;;;;;;;;;;;19.70;55.55;98411.50;2093823;28;20111;-45
2021/12/27 02:54:44;;;;;;;;;;;;;;;19.73;55.50;98406.69;2093597;28;19923;-45
2021/12/27 02:55:47;;;;;;;;;;;;;;;19.72;55.57;98402.25;2095394;28;20338;-45
2021/12/27 02:56:47;;;;;;;;;;;;;;;19.70;55.48;98400.56;2093237;28;19931;-45
2021/12/27 02:57:50;;;;;;;;;;;;;;;19.71;55.53;98395.94;2090761;28;20551;-45
2021/12/27 02:58:50;;;;;;;;;;;;;;;19.70;55.65;98394.25;2096389;28;19923;-45
2021/12/27 02:59:52;;;;;;;;;;;;;;;19.70;55.52;98395.09;2091650;28;19920;-45
2021/12/27 03:00:57;;;;;;;;;;;;;;;19.70;55.54;98399.72;2094748;28;19957;-44
2021/12/27 03:01:58;;;;;;;;;;;;;;;19.69;55.56;98398.00;2094139;28;19919;-47
2021/12/27 03:02:58;;;;;;;;;;;;;;;19.69;55.56;98398.84;2083292;28;19983;-45
2021/12/27 03:03:58;;;;;;;;;;;;;;;19.68;55.59;98397.19;2097174;28;19916;-44
2021/12/27 03:04:59;;;;;;;;;;;;;;;19.68;55.63;98402.66;2090219;28;19916;-45
2021/12/27 03:05:59;;;;;;;;;;;;;;;19.69;55.75;98393.38;2083558;28;20013;-45
2021/12/27 03:06:59;;;;;;;;;;;;;;;19.69;55.58;98398.00;2083877;28;19948;-45
2021/12/27 03:08:00;;;;;;;;;;;;;;;19.68;55.73;98397.19;2090958;28;19912;-45
2021/12/27 03:09:00;;;;;;;;;;;;;;;19.66;55.71;98391.03;2095280;28;20389;-45
2021/12/27 03:10:01;;;;;;;;;;;;;;;19.68;55.67;98397.19;2091940;28;20011;-44
2021/12/27 03:11:02;;;;;;;;;;;;;;;19.67;55.74;98400.06;2090724;28;19970;-45
2021/12/27 03:12:03;;;;;;;;;;;;;;;19.67;55.74;98390.03;2092466;28;19916;-45
2021/12/27 03:13:03;;;;;;;;;;;;;;;19.66;55.79;98393.75;2094441;28;19923;-45
2021/12/27 03:14:03;;;;;;;;;;;;;;;19.66;55.71;98388.28;2090366;28;19920;-45
2021/12/27 03:15:08;;;;;;;;;;;;;;;19.67;55.76;98378.19;2092004;28;20212;-45
2021/12/27 03:16:10;;;;;;;;;;;;;;;19.65;55.81;98375.66;2084123;28;19923;-45
2021/12/27 03:17:10;;;;;;;;;;;;;;;19.65;55.78;98370.22;2086264;28;19916;-45
2021/12/27 03:18:12;;;;;;;;;;;;;;;19.64;55.79;98368.50;2095125;28;20314;-45
2021/12/27 03:19:12;;;;;;;;;;;;;;;19.64;55.69;98368.50;2093726;28;19961;-46
2021/12/27 03:20:13;;;;;;;;;;;;;;;19.64;55.72;98376.69;2094873;28;20884;-44
2021/12/27 03:21:14;;;;;;;;;;;;;;;19.64;55.63;98378.59;2091798;28;19923;-46
2021/12/27 03:22:14;;;;;;;;;;;;;;;19.64;55.76;98390.38;2096033;28;20729;-45
2021/12/27 03:23:14;;;;;;;;;;;;;;;19.64;55.83;98395.00;2092812;28;19916;-45
2021/12/27 03:24:15;;;;;;;;;;;;;;;19.64;55.79;98404.03;2085177;28;19905;-45
2021/12/27 03:25:16;;;;;;;;;;;;;;;19.64;55.78;98412.22;2084349;28;20140;-46
2021/12/27 03:26:16;;;;;;;;;;;;;;;19.63;55.72;98405.09;2094186;28;19955;-45
2021/12/27 03:27:17;;;;;;;;;;;;;;;19.63;55.73;98405.09;2093986;28;20242;-47
2021/12/27 03:28:17;;;;;;;;;;;;;;;19.63;55.74;98409.72;2090284;28;19936;-45
2021/12/27 03:29:17;;;;;;;;;;;;;;;19.62;55.78;98414.34;2093918;28;20262;-45
2021/12/27 03:30:20;;;;;;;;;;;;;;;19.62;55.81;98419.81;2095380;28;19960;-45
2021/12/27 03:31:20;;;;;;;;;;;;;;;19.61;55.88;98409.06;2087397;28;19917;-44
2021/12/27 03:32:22;;;;;;;;;;;;;;;19.62;55.81;98408.00;2092898;28;19969;-47
2021/12/27 03:33:23;;;;;;;;;;;;;;;19.60;55.83;98410.94;2090156;28;20790;-45
2021/12/27 03:34:24;;;;;;;;;;;;;;;19.61;55.84;98411.78;2080464;28;20019;-44
2021/12/27 03:35:34;;;;;;;;;;;;;;;19.60;55.81;98415.53;2080719;28;19916;-45
2021/12/27 03:36:38;;;;;;;;;;;;;;;19.60;55.84;98415.53;2093994;28;19916;-45
2021/12/27 03:37:40;;;;;;;;;;;;;;;19.59;55.81;98411.97;2093933;28;19956;-47
2021/12/27 03:38:42;;;;;;;;;;;;;;;19.60;55.87;98404.59;2095940;28;19908;-44
2021/12/27 03:39:43;;;;;;;;;;;;;;;19.59;55.83;98398.31;2092888;28;19982;-44
2021/12/27 03:40:45;;;;;;;;;;;;;;;19.59;55.80;98403.78;2095197;28;20520;-46
2021/12/27 03:41:46;;;;;;;;;;;;;;;19.58;55.93;98410.28;2091959;28;20027;-45
2021/12/27 03:42:49;;;;;;;;;;;;;;;19.58;55.94;98407.56;2089676;28;20082;-45
2021/12/27 03:43:50;;;;;;;;;;;;;;;19.58;55.87;98403.97;2093521;28;19916;-45
2021/12/27 03:44:50;;;;;;;;;;;;;;;19.58;55.91;98404.81;2093419;28;19919;-45
2021/12/27 03:45:50;;;;;;;;;;;;;;;19.58;55.98;98407.56;2090805;28;19916;-45
2021/12/27 03:46:51;;;;;;;;;;;;;;;19.57;55.87;98405.84;2090735;28;20727;-45
2021/12/27 03:47:51;;;;;;;;;;;;;;;19.58;55.87;98406.72;2095490;28;19951;-45
2021/12/27 03:48:51;;;;;;;;;;;;;;;19.57;55.99;98411.31;2093740;28;19916;-45
2021/12/27 03:49:52;;;;;;;;;;;;;;;19.57;55.86;98410.47;2092404;28;19916;-45
2021/12/27 03:50:53;;;;;;;;;;;;;;;19.56;55.87;98409.63;2080644;28;20010;-46
2021/12/27 03:51:53;;;;;;;;;;;;;;;19.57;55.93;98418.66;2082588;28;19943;-45
2021/12/27 03:52:54;;;;;;;;;;;;;;;19.56;55.84;98417.84;2093166;28;20464;-46
2021/12/27 03:53:55;;;;;;;;;;;;;;;19.56;55.87;98420.56;2093367;28;19938;-44
2021/12/27 03:54:56;;;;;;;;;;;;;;;19.56;55.89;98426.03;2094880;28;19920;-44
2021/12/27 03:55:56;;;;;;;;;;;;;;;19.56;56.03;98430.66;2091227;28;19982;-44
2021/12/27 03:56:57;;;;;;;;;;;;;;;19.56;55.97;98434.22;2092445;28;19938;-45
2021/12/27 03:58:07;;;;;;;;;;;;;;;19.56;55.93;98438.84;2083188;28;19913;-44
2021/12/27 04:00:32;;;;;;;;;;;;;;;19.54;55.87;98449.97;2090664;28;19977;-45
2021/12/27 04:01:33;;;;;;;;;;;;;;;19.55;55.89;98445.34;2093342;28;20272;-46
2021/12/27 04:02:37;;;;;;;;;;;;;;;19.54;55.98;98454.59;2087996;28;19916;-45
2021/12/27 04:03:37;;;;;;;;;;;;;;;19.54;55.90;98460.91;2091452;28;19927;-45
2021/12/27 04:04:38;;;;;;;;;;;;;;;19.54;55.95;98458.16;2089830;28;20753;-45
2021/12/27 04:05:38;;;;;;;;;;;;;;;19.53;55.91;98451.03;2087609;28;19970;-48
2021/12/27 04:06:38;;;;;;;;;;;;;;;19.54;56.03;98455.44;2091692;28;19963;-45
2021/12/27 04:07:39;;;;;;;;;;;;;;;19.53;56.03;98453.75;2088133;28;19909;-45
2021/12/27 04:08:40;;;;;;;;;;;;;;;19.53;56.03;98458.38;2094629;28;20007;-47
2021/12/27 04:09:41;;;;;;;;;;;;;;;19.52;55.95;98448.47;2094401;28;19958;-45
2021/12/27 04:10:42;;;;;;;;;;;;;;;19.52;56.08;98445.72;2090663;28;19958;-44
2021/12/27 04:11:42;;;;;;;;;;;;;;;19.51;56.12;98450.34;2091327;28;19920;-45
2021/12/27 04:12:43;;;;;;;;;;;;;;;19.52;56.07;98451.19;2098105;28;20458;-44
2021/12/27 04:13:43;;;;;;;;;;;;;;;19.51;56.08;98441.31;2094996;28;19922;-45
2021/12/27 04:14:43;;;;;;;;;;;;;;;19.51;56.07;98444.91;2090909;28;20294;-45
2021/12/27 04:15:45;;;;;;;;;;;;;;;19.50;56.26;98448.69;2094165;28;19928;-45
2021/12/27 04:16:46;;;;;;;;;;;;;;;19.50;56.01;98456.88;2095797;28;20075;-44
2021/12/27 04:17:47;;;;;;;;;;;;;;;19.51;56.05;98466.75;2094579;28;20211;-45
2021/12/27 04:18:47;;;;;;;;;;;;;;;19.50;56.00;98465.06;2096272;28;19985;-45
2021/12/27 04:19:48;;;;;;;;;;;;;;;19.49;56.10;98463.38;2093567;28;19924;-45
2021/12/27 04:20:48;;;;;;;;;;;;;;;19.49;56.08;98468.84;2093757;28;20350;-46
2021/12/27 04:21:48;;;;;;;;;;;;;;;19.49;56.11;98464.19;2092592;28;19916;-45
2021/12/27 04:22:49;;;;;;;;;;;;;;;19.47;56.18;98449.88;2094671;28;20560;-45
2021/12/27 04:23:49;;;;;;;;;;;;;;;19.49;56.19;98460.63;2095787;28;20482;-47
2021/12/27 04:24:49;;;;;;;;;;;;;;;19.49;56.14;98457.91;2093470;28;19924;-45
2021/12/27 04:25:50;;;;;;;;;;;;;;;19.48;56.16;98445.28;2093653;28;20635;-45
2021/12/27 04:26:50;;;;;;;;;;;;;;;19.48;56.26;98439.81;2093966;28;19987;-44
2021/12/27 04:27:51;;;;;;;;;;;;;;;19.46;56.20;98442.72;2092779;28;20209;-45
2021/12/27 04:28:52;;;;;;;;;;;;;;;19.47;56.21;98443.56;2094927;28;19931;-45
2021/12/27 04:29:52;;;;;;;;;;;;;;;19.47;56.25;98432.66;2091657;28;20207;-45
2021/12/27 04:30:53;;;;;;;;;;;;;;;19.47;56.21;98440.84;2086309;28;19925;-45
2021/12/27 04:31:53;;;;;;;;;;;;;;;19.46;56.22;98447.34;2088175;28;19916;-45
2021/12/27 04:32:53;;;;;;;;;;;;;;;19.46;56.14;98447.34;2092112;28;19969;-44
2021/12/27 04:33:54;;;;;;;;;;;;;;;19.46;56.26;98441.91;2091150;28;19931;-48
2021/12/27 04:34:54;;;;;;;;;;;;;;;19.46;56.22;98444.63;2093785;28;19920;-45
2021/12/27 04:35:54;;;;;;;;;;;;;;;19.45;56.23;98441.06;2094496;28;20387;-44
2021/12/27 04:36:55;;;;;;;;;;;;;;;19.46;56.25;98439.16;2096635;28;20365;-44
2021/12/27 04:37:56;;;;;;;;;;;;;;;19.44;56.24;98439.34;2092579;28;19912;-44
2021/12/27 04:38:56;;;;;;;;;;;;;;;19.44;56.23;98433.03;2102108;28;19937;-44
2021/12/27 04:39:58;;;;;;;;;;;;;;;19.45;56.17;98441.06;2094097;28;19920;-45
2021/12/27 04:40:58;;;;;;;;;;;;;;;19.44;56.21;98435.75;2095952;28;19912;-45
2021/12/27 04:41:58;;;;;;;;;;;;;;;19.44;56.24;98452.16;2099383;28;19923;-44
2021/12/27 04:43:03;;;;;;;;;;;;;;;19.45;56.31;98440.19;2094165;28;19916;-45
2021/12/27 04:44:04;;;;;;;;;;;;;;;19.44;56.29;98438.50;2098602;28;20189;-45
2021/12/27 04:45:04;;;;;;;;;;;;;;;19.44;56.21;98433.03;2097510;28;20135;-46
2021/12/27 04:46:05;;;;;;;;;;;;;;;19.44;56.15;98443.97;2092679;28;20246;-46
2021/12/27 04:47:05;;;;;;;;;;;;;;;19.43;56.21;98443.13;2093323;28;20499;-44
2021/12/27 04:48:06;;;;;;;;;;;;;;;19.44;56.25;98452.16;2092479;28;19939;-46
2021/12/27 04:49:06;;;;;;;;;;;;;;;19.44;56.28;98452.16;2095839;28;20368;-45
2021/12/27 04:50:06;;;;;;;;;;;;;;;19.43;56.29;98458.69;2096337;28;19915;-45
2021/12/27 04:51:07;;;;;;;;;;;;;;;19.43;56.23;98461.41;2099010;28;19922;-45
2021/12/27 04:52:07;;;;;;;;;;;;;;;19.42;56.23;98460.53;2092183;28;20624;-45
2021/12/27 04:53:08;;;;;;;;;;;;;;;19.43;56.33;98464.16;2094296;28;19908;-45
2021/12/27 04:54:08;;;;;;;;;;;;;;;19.43;56.24;98455.94;2090132;28;19909;-45
2021/12/27 04:55:08;;;;;;;;;;;;;;;19.43;56.33;98453.22;2093756;28;19923;-45
2021/12/27 04:56:09;;;;;;;;;;;;;;;19.42;56.22;98454.22;2085252;28;19924;-45
2021/12/27 04:57:09;;;;;;;;;;;;;;;19.42;56.29;98457.81;2085506;28;19989;-45
2021/12/27 04:58:10;;;;;;;;;;;;;;;19.42;56.37;98473.38;2086068;28;19909;-45
2021/12/27 04:59:10;;;;;;;;;;;;;;;19.41;56.22;98477.16;2092185;28;19908;-44
2021/12/27 05:00:11;;;;;;;;;;;;;;;19.41;56.33;98483.44;2088218;28;19917;-45
2021/12/27 05:01:12;;;;;;;;;;;;;;;19.41;56.27;98494.38;2092808;28;20407;-44
2021/12/27 05:02:12;;;;;;;;;;;;;;;19.42;56.22;98500.69;2096046;28;19943;-45
2021/12/27 05:03:12;;;;;;;;;;;;;;;19.42;56.47;98512.47;2087718;28;19908;-44
2021/12/27 05:04:13;;;;;;;;;;;;;;;19.41;56.25;98505.31;2091994;28;20401;-44
2021/12/27 05:05:14;;;;;;;;;;;;;;;19.41;56.27;98499.00;2094341;28;20668;-46
2021/12/27 05:06:14;;;;;;;;;;;;;;;19.41;56.27;98485.34;2092389;28;19926;-45
2021/12/27 05:07:15;;;;;;;;;;;;;;;19.40;56.28;98469.97;2095631;28;19928;-46
2021/12/27 05:08:16;;;;;;;;;;;;;;;19.40;56.34;98459.03;2093735;28;19969;-44
2021/12/27 05:09:16;;;;;;;;;;;;;;;19.39;56.26;98452.75;2083507;28;20200;-45
2021/12/27 05:10:16;;;;;;;;;;;;;;;19.39;56.21;98440.97;2084990;28;19916;-45
2021/12/27 05:11:16;;;;;;;;;;;;;;;19.39;56.37;98436.34;2093789;28;19916;-46
2021/12/27 05:12:17;;;;;;;;;;;;;;;19.38;56.26;98440.13;2091408;28;19916;-45
2021/12/27 05:13:18;;;;;;;;;;;;;;;19.38;56.28;98426.47;2094757;28;19916;-45
2021/12/27 05:14:18;;;;;;;;;;;;;;;19.38;56.34;98429.19;2091719;28;19925;-45
2021/12/27 05:15:18;;;;;;;;;;;;;;;19.38;56.16;98423.72;2090614;28;19947;-45
2021/12/27 05:16:18;;;;;;;;;;;;;;;19.38;56.35;98428.34;2093580;28;19916;-45
2021/12/27 05:17:19;;;;;;;;;;;;;;;19.38;56.30;98428.34;2091233;28;20282;-45
2021/12/27 05:18:19;;;;;;;;;;;;;;;19.38;56.26;98434.66;2093730;28;19993;-45
2021/12/27 05:19:19;;;;;;;;;;;;;;;19.38;56.30;98436.56;2092168;28;20353;-45
2021/12/27 05:20:20;;;;;;;;;;;;;;;19.38;56.36;98444.75;2093700;28;20043;-48
2021/12/27 05:21:20;;;;;;;;;;;;;;;19.38;56.39;98452.94;2102190;28;19963;-45